sensor_id;sensor_type;location;lat;lon;timestamp;temperature;humidity
76120;DHT22;64852;48.092;-1.640;2023-04-24T00:00:12;11.70;99.90
76120;DHT22;64852;48.092;-1.640;2023-04-24T00:02:39;11.70;99.90
76120;DHT22;64852;48.092;-1.640;2023-04-24T00:05:05;11.60;99.90
76120;DHT22;64852;48.092;-1.640;2023-04-24T00:07:31;11.60;99.90
76120;DHT22;64852;48.092;-1.640;2023-04-24T00:09:56;11.80;99.90
76120;DHT22;64852;48.092;-1.640;2023-04-24T00:12:22;11.70;99.90
76120;DHT22;64852;48.092;-1.640;2023-04-24T00:14:47;11.70;99.90
76120;DHT22;64852;48.092;-1.640;2023-04-24T00:17:13;11.70;99.90
76120;DHT22;64852;48.092;-1.640;2023-04-24T00:19:38;11.70;99.90
76120;DHT22;64852;48.092;-1.640;2023-04-24T00:22:04;11.70;99.90
76120;DHT22;64852;48.092;-1.640;2023-04-24T00:24:30;11.70;99.90
76120;DHT22;64852;48.092;-1.640;2023-04-24T00:26:56;11.70;99.90
76120;DHT22;64852;48.092;-1.640;2023-04-24T00:29:21;11.60;99.90
76120;DHT22;64852;48.092;-1.640;2023-04-24T00:31:47;11.60;99.90
76120;DHT22;64852;48.092;-1.640;2023-04-24T00:34:12;11.60;99.90
76120;DHT22;64852;48.092;-1.640;2023-04-24T00:36:38;11.60;99.90
76120;DHT22;64852;48.092;-1.640;2023-04-24T00:39:04;11.60;99.90
76120;DHT22;64852;48.092;-1.640;2023-04-24T00:41:29;11.70;99.90
76120;DHT22;64852;48.092;-1.640;2023-04-24T00:43:55;11.60;99.90
76120;DHT22;64852;48.092;-1.640;2023-04-24T00:46:21;11.50;99.90
76120;DHT22;64852;48.092;-1.640;2023-04-24T00:48:46;11.60;99.90
76120;DHT22;64852;48.092;-1.640;2023-04-24T00:51:12;11.40;99.90
76120;DHT22;64852;48.092;-1.640;2023-04-24T00:53:38;11.40;99.90
76120;DHT22;64852;48.092;-1.640;2023-04-24T00:56:04;11.40;99.90
76120;DHT22;64852;48.092;-1.640;2023-04-24T00:58:30;11.40;99.90
76120;DHT22;64852;48.092;-1.640;2023-04-24T01:00:56;11.40;99.90
76120;DHT22;64852;48.092;-1.640;2023-04-24T01:03:24;11.40;99.90
76120;DHT22;64852;48.092;-1.640;2023-04-24T01:05:51;11.50;99.90
76120;DHT22;64852;48.092;-1.640;2023-04-24T01:08:17;11.40;99.90
76120;DHT22;64852;48.092;-1.640;2023-04-24T01:10:43;11.40;99.90
76120;DHT22;64852;48.092;-1.640;2023-04-24T01:13:09;11.40;99.90
76120;DHT22;64852;48.092;-1.640;2023-04-24T01:15:34;11.40;99.90
76120;DHT22;64852;48.092;-1.640;2023-04-24T01:18:00;11.40;99.90
76120;DHT22;64852;48.092;-1.640;2023-04-24T01:20:26;11.40;99.90
76120;DHT22;64852;48.092;-1.640;2023-04-24T01:22:51;11.40;99.90
76120;DHT22;64852;48.092;-1.640;2023-04-24T01:25:18;11.40;99.90
76120;DHT22;64852;48.092;-1.640;2023-04-24T01:27:43;11.40;99.90
76120;DHT22;64852;48.092;-1.640;2023-04-24T01:30:09;11.40;99.90
76120;DHT22;64852;48.092;-1.640;2023-04-24T01:32:35;11.30;99.90
76120;DHT22;64852;48.092;-1.640;2023-04-24T01:35:01;11.30;99.90
76120;DHT22;64852;48.092;-1.640;2023-04-24T01:37:27;11.30;99.90
76120;DHT22;64852;48.092;-1.640;2023-04-24T01:39:53;11.30;99.90
76120;DHT22;64852;48.092;-1.640;2023-04-24T01:42:18;11.30;99.90
76120;DHT22;64852;48.092;-1.640;2023-04-24T01:44:44;11.20;99.90
76120;DHT22;64852;48.092;-1.640;2023-04-24T01:47:10;11.30;99.90
76120;DHT22;64852;48.092;-1.640;2023-04-24T01:49:36;11.20;99.90
76120;DHT22;64852;48.092;-1.640;2023-04-24T01:52:02;11.10;99.90
76120;DHT22;64852;48.092;-1.640;2023-04-24T01:54:28;11.20;99.90
76120;DHT22;64852;48.092;-1.640;2023-04-24T01:56:53;11.20;99.90
76120;DHT22;64852;48.092;-1.640;2023-04-24T01:59:19;11.20;99.90
76120;DHT22;64852;48.092;-1.640;2023-04-24T02:01:45;11.20;99.90
76120;DHT22;64852;48.092;-1.640;2023-04-24T02:04:11;11.20;99.90
76120;DHT22;64852;48.092;-1.640;2023-04-24T02:06:37;11.20;99.90
76120;DHT22;64852;48.092;-1.640;2023-04-24T02:09:02;11.30;99.90
76120;DHT22;64852;48.092;-1.640;2023-04-24T02:11:28;11.20;99.90
76120;DHT22;64852;48.092;-1.640;2023-04-24T02:13:54;11.20;99.90
76120;DHT22;64852;48.092;-1.640;2023-04-24T02:16:19;11.10;99.90
76120;DHT22;64852;48.092;-1.640;2023-04-24T02:18:45;11.00;99.90
76120;DHT22;64852;48.092;-1.640;2023-04-24T02:21:10;11.10;99.90
76120;DHT22;64852;48.092;-1.640;2023-04-24T02:23:36;11.00;99.90
76120;DHT22;64852;48.092;-1.640;2023-04-24T02:26:01;11.10;99.90
76120;DHT22;64852;48.092;-1.640;2023-04-24T02:28:27;11.00;99.90
76120;DHT22;64852;48.092;-1.640;2023-04-24T02:30:53;11.10;99.90
76120;DHT22;64852;48.092;-1.640;2023-04-24T02:33:18;11.10;99.90
76120;DHT22;64852;48.092;-1.640;2023-04-24T02:35:44;11.10;99.90
76120;DHT22;64852;48.092;-1.640;2023-04-24T02:38:09;10.90;99.90
76120;DHT22;64852;48.092;-1.640;2023-04-24T02:40:35;11.00;99.90
76120;DHT22;64852;48.092;-1.640;2023-04-24T02:43:00;11.00;99.90
76120;DHT22;64852;48.092;-1.640;2023-04-24T02:45:25;11.00;99.90
76120;DHT22;64852;48.092;-1.640;2023-04-24T02:47:51;11.00;99.90
76120;DHT22;64852;48.092;-1.640;2023-04-24T02:50:17;11.00;99.90
76120;DHT22;64852;48.092;-1.640;2023-04-24T02:52:42;11.00;99.90
76120;DHT22;64852;48.092;-1.640;2023-04-24T02:55:08;10.90;99.90
76120;DHT22;64852;48.092;-1.640;2023-04-24T02:57:33;11.00;99.90
76120;DHT22;64852;48.092;-1.640;2023-04-24T02:59:59;10.90;99.90
76120;DHT22;64852;48.092;-1.640;2023-04-24T03:02:24;10.90;99.90
76120;DHT22;64852;48.092;-1.640;2023-04-24T03:04:50;11.10;99.90
76120;DHT22;64852;48.092;-1.640;2023-04-24T03:07:15;10.80;99.90
76120;DHT22;64852;48.092;-1.640;2023-04-24T03:09:41;11.00;99.90
76120;DHT22;64852;48.092;-1.640;2023-04-24T03:12:06;11.10;99.90
76120;DHT22;64852;48.092;-1.640;2023-04-24T03:14:32;11.00;99.90
76120;DHT22;64852;48.092;-1.640;2023-04-24T03:16:57;11.10;99.90
76120;DHT22;64852;48.092;-1.640;2023-04-24T03:19:23;11.10;99.90
76120;DHT22;64852;48.092;-1.640;2023-04-24T03:21:49;11.10;99.90
76120;DHT22;64852;48.092;-1.640;2023-04-24T03:24:14;11.10;99.90
76120;DHT22;64852;48.092;-1.640;2023-04-24T03:26:40;11.10;99.90
76120;DHT22;64852;48.092;-1.640;2023-04-24T03:29:05;11.00;99.90
76120;DHT22;64852;48.092;-1.640;2023-04-24T03:31:31;11.10;99.90
76120;DHT22;64852;48.092;-1.640;2023-04-24T03:33:56;11.00;99.90
76120;DHT22;64852;48.092;-1.640;2023-04-24T03:36:22;10.90;99.90
76120;DHT22;64852;48.092;-1.640;2023-04-24T03:38:47;10.90;99.90
76120;DHT22;64852;48.092;-1.640;2023-04-24T03:41:13;11.00;99.90
76120;DHT22;64852;48.092;-1.640;2023-04-24T03:43:38;11.00;99.90
76120;DHT22;64852;48.092;-1.640;2023-04-24T03:46:05;11.00;99.90
76120;DHT22;64852;48.092;-1.640;2023-04-24T03:48:30;11.00;99.90
76120;DHT22;64852;48.092;-1.640;2023-04-24T03:50:56;11.00;99.90
76120;DHT22;64852;48.092;-1.640;2023-04-24T03:53:21;10.90;99.90
76120;DHT22;64852;48.092;-1.640;2023-04-24T03:55:47;10.90;99.90
76120;DHT22;64852;48.092;-1.640;2023-04-24T03:58:12;10.90;99.90
76120;DHT22;64852;48.092;-1.640;2023-04-24T04:00:39;10.90;99.90
76120;DHT22;64852;48.092;-1.640;2023-04-24T04:03:05;10.90;99.90
76120;DHT22;64852;48.092;-1.640;2023-04-24T04:05:31;10.90;99.90
76120;DHT22;64852;48.092;-1.640;2023-04-24T04:07:56;10.80;99.90
76120;DHT22;64852;48.092;-1.640;2023-04-24T04:10:22;10.90;99.90
76120;DHT22;64852;48.092;-1.640;2023-04-24T04:12:48;10.90;99.90
76120;DHT22;64852;48.092;-1.640;2023-04-24T04:15:13;10.70;99.90
76120;DHT22;64852;48.092;-1.640;2023-04-24T04:17:39;10.80;99.90
76120;DHT22;64852;48.092;-1.640;2023-04-24T04:20:05;10.80;99.90
76120;DHT22;64852;48.092;-1.640;2023-04-24T04:22:37;10.80;99.90
76120;DHT22;64852;48.092;-1.640;2023-04-24T04:25:03;10.90;99.90
76120;DHT22;64852;48.092;-1.640;2023-04-24T04:27:28;10.90;99.90
76120;DHT22;64852;48.092;-1.640;2023-04-24T04:29:58;10.80;99.90
76120;DHT22;64852;48.092;-1.640;2023-04-24T04:32:24;9.00;99.90
76120;DHT22;64852;48.092;-1.640;2023-04-24T04:34:49;10.90;99.90
76120;DHT22;64852;48.092;-1.640;2023-04-24T04:37:18;11.00;99.90
76120;DHT22;64852;48.092;-1.640;2023-04-24T04:39:44;10.80;99.90
76120;DHT22;64852;48.092;-1.640;2023-04-24T04:42:09;10.90;99.90
76120;DHT22;64852;48.092;-1.640;2023-04-24T04:44:35;10.90;99.90
76120;DHT22;64852;48.092;-1.640;2023-04-24T04:47:01;10.80;99.90
76120;DHT22;64852;48.092;-1.640;2023-04-24T04:49:31;10.80;99.90
76120;DHT22;64852;48.092;-1.640;2023-04-24T04:51:56;10.70;99.90
76120;DHT22;64852;48.092;-1.640;2023-04-24T04:54:22;10.70;99.90
76120;DHT22;64852;48.092;-1.640;2023-04-24T04:56:49;10.70;99.90
76120;DHT22;64852;48.092;-1.640;2023-04-24T04:59:15;10.70;99.90
76120;DHT22;64852;48.092;-1.640;2023-04-24T05:01:40;10.80;99.90
76120;DHT22;64852;48.092;-1.640;2023-04-24T05:04:06;10.80;99.90
76120;DHT22;64852;48.092;-1.640;2023-04-24T05:06:31;10.80;99.90
76120;DHT22;64852;48.092;-1.640;2023-04-24T05:08:57;10.80;99.90
76120;DHT22;64852;48.092;-1.640;2023-04-24T05:11:23;10.80;99.90
76120;DHT22;64852;48.092;-1.640;2023-04-24T05:13:48;10.80;99.90
76120;DHT22;64852;48.092;-1.640;2023-04-24T05:16:14;10.70;99.90
76120;DHT22;64852;48.092;-1.640;2023-04-24T05:18:39;10.70;99.90
76120;DHT22;64852;48.092;-1.640;2023-04-24T05:21:05;10.70;99.90
76120;DHT22;64852;48.092;-1.640;2023-04-24T05:23:31;10.80;99.90
76120;DHT22;64852;48.092;-1.640;2023-04-24T05:25:56;10.90;99.90
76120;DHT22;64852;48.092;-1.640;2023-04-24T05:28:22;10.80;99.90
76120;DHT22;64852;48.092;-1.640;2023-04-24T05:30:48;10.70;99.90
76120;DHT22;64852;48.092;-1.640;2023-04-24T05:33:13;10.70;99.90
76120;DHT22;64852;48.092;-1.640;2023-04-24T05:35:40;10.70;99.90
76120;DHT22;64852;48.092;-1.640;2023-04-24T05:38:05;10.70;99.90
76120;DHT22;64852;48.092;-1.640;2023-04-24T05:40:31;10.60;99.90
76120;DHT22;64852;48.092;-1.640;2023-04-24T05:42:56;10.60;99.90
76120;DHT22;64852;48.092;-1.640;2023-04-24T05:45:21;10.60;99.90
76120;DHT22;64852;48.092;-1.640;2023-04-24T05:47:47;10.70;99.90
76120;DHT22;64852;48.092;-1.640;2023-04-24T05:50:13;10.50;99.90
76120;DHT22;64852;48.092;-1.640;2023-04-24T05:52:38;10.60;99.90
76120;DHT22;64852;48.092;-1.640;2023-04-24T05:55:04;10.60;99.90
76120;DHT22;64852;48.092;-1.640;2023-04-24T05:57:30;10.50;99.90
76120;DHT22;64852;48.092;-1.640;2023-04-24T05:59:56;10.50;99.90
76120;DHT22;64852;48.092;-1.640;2023-04-24T06:02:21;10.50;99.90
76120;DHT22;64852;48.092;-1.640;2023-04-24T06:04:47;10.50;99.90
76120;DHT22;64852;48.092;-1.640;2023-04-24T06:07:12;10.50;99.90
76120;DHT22;64852;48.092;-1.640;2023-04-24T06:09:38;10.50;99.90
76120;DHT22;64852;48.092;-1.640;2023-04-24T06:12:04;10.40;99.90
76120;DHT22;64852;48.092;-1.640;2023-04-24T06:14:29;10.40;99.90
76120;DHT22;64852;48.092;-1.640;2023-04-24T06:16:55;10.40;99.90
76120;DHT22;64852;48.092;-1.640;2023-04-24T06:19:20;10.40;99.90
76120;DHT22;64852;48.092;-1.640;2023-04-24T06:21:46;10.40;99.90
76120;DHT22;64852;48.092;-1.640;2023-04-24T06:24:13;10.40;99.90
76120;DHT22;64852;48.092;-1.640;2023-04-24T06:26:39;10.40;99.90
76120;DHT22;64852;48.092;-1.640;2023-04-24T06:29:05;10.40;99.90
76120;DHT22;64852;48.092;-1.640;2023-04-24T06:31:32;10.40;99.90
76120;DHT22;64852;48.092;-1.640;2023-04-24T06:34:02;10.40;99.90
76120;DHT22;64852;48.092;-1.640;2023-04-24T06:36:28;10.40;99.90
76120;DHT22;64852;48.092;-1.640;2023-04-24T06:38:53;10.40;99.90
76120;DHT22;64852;48.092;-1.640;2023-04-24T06:41:19;10.40;99.90
76120;DHT22;64852;48.092;-1.640;2023-04-24T06:43:44;10.50;99.90
76120;DHT22;64852;48.092;-1.640;2023-04-24T06:46:10;10.40;99.90
76120;DHT22;64852;48.092;-1.640;2023-04-24T06:48:35;10.50;99.90
76120;DHT22;64852;48.092;-1.640;2023-04-24T06:51:01;10.50;99.90
76120;DHT22;64852;48.092;-1.640;2023-04-24T06:53:26;10.50;99.90
76120;DHT22;64852;48.092;-1.640;2023-04-24T06:55:52;10.60;99.90
76120;DHT22;64852;48.092;-1.640;2023-04-24T06:58:18;10.60;99.90
76120;DHT22;64852;48.092;-1.640;2023-04-24T07:00:43;10.80;99.90
76120;DHT22;64852;48.092;-1.640;2023-04-24T07:03:09;10.80;99.90
76120;DHT22;64852;48.092;-1.640;2023-04-24T07:05:35;10.90;99.90
76120;DHT22;64852;48.092;-1.640;2023-04-24T07:08:00;11.00;99.90
76120;DHT22;64852;48.092;-1.640;2023-04-24T07:10:26;11.00;99.90
76120;DHT22;64852;48.092;-1.640;2023-04-24T07:12:54;11.00;99.90
76120;DHT22;64852;48.092;-1.640;2023-04-24T07:15:19;11.20;99.90
76120;DHT22;64852;48.092;-1.640;2023-04-24T07:17:45;11.10;99.90
76120;DHT22;64852;48.092;-1.640;2023-04-24T07:20:11;11.00;99.90
76120;DHT22;64852;48.092;-1.640;2023-04-24T07:22:37;11.10;99.90
76120;DHT22;64852;48.092;-1.640;2023-04-24T07:25:03;11.00;99.90
76120;DHT22;64852;48.092;-1.640;2023-04-24T07:27:28;11.00;99.90
76120;DHT22;64852;48.092;-1.640;2023-04-24T07:29:54;11.00;99.90
76120;DHT22;64852;48.092;-1.640;2023-04-24T07:32:19;11.10;99.90
76120;DHT22;64852;48.092;-1.640;2023-04-24T07:34:45;11.20;99.90
76120;DHT22;64852;48.092;-1.640;2023-04-24T07:37:11;11.20;99.90
76120;DHT22;64852;48.092;-1.640;2023-04-24T07:39:36;11.30;99.90
76120;DHT22;64852;48.092;-1.640;2023-04-24T07:42:02;11.20;99.90
76120;DHT22;64852;48.092;-1.640;2023-04-24T07:44:27;11.30;99.90
76120;DHT22;64852;48.092;-1.640;2023-04-24T07:46:53;11.30;99.90
76120;DHT22;64852;48.092;-1.640;2023-04-24T07:49:19;11.30;99.90
76120;DHT22;64852;48.092;-1.640;2023-04-24T07:51:44;11.30;99.90
76120;DHT22;64852;48.092;-1.640;2023-04-24T07:54:10;11.30;99.90
76120;DHT22;64852;48.092;-1.640;2023-04-24T07:56:35;11.20;99.90
76120;DHT22;64852;48.092;-1.640;2023-04-24T07:59:04;11.30;99.90
76120;DHT22;64852;48.092;-1.640;2023-04-24T08:01:30;11.30;99.90
76120;DHT22;64852;48.092;-1.640;2023-04-24T08:03:55;11.20;99.90
76120;DHT22;64852;48.092;-1.640;2023-04-24T08:06:21;11.20;99.90
76120;DHT22;64852;48.092;-1.640;2023-04-24T08:08:46;11.30;99.90
76120;DHT22;64852;48.092;-1.640;2023-04-24T08:11:12;11.40;99.90
76120;DHT22;64852;48.092;-1.640;2023-04-24T08:13:37;11.40;99.90
76120;DHT22;64852;48.092;-1.640;2023-04-24T08:16:03;11.50;99.90
76120;DHT22;64852;48.092;-1.640;2023-04-24T08:18:28;11.70;99.90
76120;DHT22;64852;48.092;-1.640;2023-04-24T08:20:54;11.70;99.90
76120;DHT22;64852;48.092;-1.640;2023-04-24T08:23:19;11.90;99.90
76120;DHT22;64852;48.092;-1.640;2023-04-24T08:25:45;12.00;99.90
76120;DHT22;64852;48.092;-1.640;2023-04-24T08:28:10;11.90;99.90
76120;DHT22;64852;48.092;-1.640;2023-04-24T08:30:36;12.10;99.90
76120;DHT22;64852;48.092;-1.640;2023-04-24T08:33:02;12.20;99.90
76120;DHT22;64852;48.092;-1.640;2023-04-24T08:35:27;12.10;99.90
76120;DHT22;64852;48.092;-1.640;2023-04-24T08:37:53;12.20;99.90
76120;DHT22;64852;48.092;-1.640;2023-04-24T08:40:19;12.20;99.90
76120;DHT22;64852;48.092;-1.640;2023-04-24T08:42:47;12.30;99.90
76120;DHT22;64852;48.092;-1.640;2023-04-24T08:45:13;12.40;99.90
76120;DHT22;64852;48.092;-1.640;2023-04-24T08:47:39;12.30;99.90
76120;DHT22;64852;48.092;-1.640;2023-04-24T08:50:05;12.30;99.90
76120;DHT22;64852;48.092;-1.640;2023-04-24T08:52:34;12.30;99.90
76120;DHT22;64852;48.092;-1.640;2023-04-24T08:55:00;12.30;99.90
76120;DHT22;64852;48.092;-1.640;2023-04-24T08:57:26;12.80;99.90
76120;DHT22;64852;48.092;-1.640;2023-04-24T08:59:53;12.50;99.90
76120;DHT22;64852;48.092;-1.640;2023-04-24T09:02:18;12.70;99.90
76120;DHT22;64852;48.092;-1.640;2023-04-24T09:04:44;12.60;99.90
76120;DHT22;64852;48.092;-1.640;2023-04-24T09:07:11;12.70;99.90
76120;DHT22;64852;48.092;-1.640;2023-04-24T09:09:37;12.70;99.90
76120;DHT22;64852;48.092;-1.640;2023-04-24T09:12:03;12.80;99.90
76120;DHT22;64852;48.092;-1.640;2023-04-24T09:14:29;12.80;99.90
76120;DHT22;64852;48.092;-1.640;2023-04-24T09:16:57;13.00;99.90
76120;DHT22;64852;48.092;-1.640;2023-04-24T09:19:22;13.20;99.90
76120;DHT22;64852;48.092;-1.640;2023-04-24T09:21:48;13.50;99.90
76120;DHT22;64852;48.092;-1.640;2023-04-24T09:24:15;13.50;99.90
76120;DHT22;64852;48.092;-1.640;2023-04-24T09:26:43;13.70;99.90
76120;DHT22;64852;48.092;-1.640;2023-04-24T09:29:13;13.80;99.90
76120;DHT22;64852;48.092;-1.640;2023-04-24T09:31:39;14.00;99.90
76120;DHT22;64852;48.092;-1.640;2023-04-24T09:34:04;14.10;99.90
76120;DHT22;64852;48.092;-1.640;2023-04-24T09:39:08;13.90;99.90
76120;DHT22;64852;48.092;-1.640;2023-04-24T09:41:43;13.80;99.90
76120;DHT22;64852;48.092;-1.640;2023-04-24T09:46:37;13.60;99.90
76120;DHT22;64852;48.092;-1.640;2023-04-24T09:49:10;13.60;99.90
76120;DHT22;64852;48.092;-1.640;2023-04-24T09:51:36;13.70;99.90
76120;DHT22;64852;48.092;-1.640;2023-04-24T09:54:03;13.70;99.90
76120;DHT22;64852;48.092;-1.640;2023-04-24T09:56:32;13.80;99.90
76120;DHT22;64852;48.092;-1.640;2023-04-24T09:59:03;13.80;99.90
76120;DHT22;64852;48.092;-1.640;2023-04-24T10:01:30;13.90;99.90
76120;DHT22;64852;48.092;-1.640;2023-04-24T10:03:55;13.80;99.90
76120;DHT22;64852;48.092;-1.640;2023-04-24T10:06:21;13.70;99.90
76120;DHT22;64852;48.092;-1.640;2023-04-24T10:08:46;13.70;99.90
76120;DHT22;64852;48.092;-1.640;2023-04-24T10:11:13;13.60;99.90
76120;DHT22;64852;48.092;-1.640;2023-04-24T10:13:39;13.50;99.90
76120;DHT22;64852;48.092;-1.640;2023-04-24T10:16:05;13.50;99.90
76120;DHT22;64852;48.092;-1.640;2023-04-24T10:18:32;13.60;99.90
76120;DHT22;64852;48.092;-1.640;2023-04-24T10:20:59;13.70;99.90
76120;DHT22;64852;48.092;-1.640;2023-04-24T10:23:25;13.80;99.90
76120;DHT22;64852;48.092;-1.640;2023-04-24T10:25:51;13.80;99.90
76120;DHT22;64852;48.092;-1.640;2023-04-24T10:28:18;13.80;99.90
76120;DHT22;64852;48.092;-1.640;2023-04-24T10:30:44;13.80;99.90
76120;DHT22;64852;48.092;-1.640;2023-04-24T10:33:10;13.80;99.90
76120;DHT22;64852;48.092;-1.640;2023-04-24T10:35:38;13.80;99.90
76120;DHT22;64852;48.092;-1.640;2023-04-24T10:38:12;13.80;99.90
76120;DHT22;64852;48.092;-1.640;2023-04-24T10:40:38;13.90;99.90
76120;DHT22;64852;48.092;-1.640;2023-04-24T10:43:04;13.70;99.90
76120;DHT22;64852;48.092;-1.640;2023-04-24T10:45:33;13.70;99.90
76120;DHT22;64852;48.092;-1.640;2023-04-24T10:48:02;13.80;99.90
76120;DHT22;64852;48.092;-1.640;2023-04-24T10:53:16;14.20;99.90
76120;DHT22;64852;48.092;-1.640;2023-04-24T10:55:52;14.50;99.90
76120;DHT22;64852;48.092;-1.640;2023-04-24T10:58:22;14.60;99.90
76120;DHT22;64852;48.092;-1.640;2023-04-24T11:00:58;14.80;99.90
76120;DHT22;64852;48.092;-1.640;2023-04-24T11:06:00;14.70;99.90
76120;DHT22;64852;48.092;-1.640;2023-04-24T11:08:30;14.70;99.90
76120;DHT22;64852;48.092;-1.640;2023-04-24T11:10:56;14.60;99.90
76120;DHT22;64852;48.092;-1.640;2023-04-24T11:13:25;14.60;99.90
76120;DHT22;64852;48.092;-1.640;2023-04-24T11:18:38;14.60;99.90
76120;DHT22;64852;48.092;-1.640;2023-04-24T11:21:11;14.80;99.90
76120;DHT22;64852;48.092;-1.640;2023-04-24T11:23:37;14.90;99.90
76120;DHT22;64852;48.092;-1.640;2023-04-24T11:26:19;15.20;99.90
76120;DHT22;64852;48.092;-1.640;2023-04-24T11:28:46;15.40;99.90
76120;DHT22;64852;48.092;-1.640;2023-04-24T11:33:56;15.50;99.90
76120;DHT22;64852;48.092;-1.640;2023-04-24T11:36:22;15.30;99.90
76120;DHT22;64852;48.092;-1.640;2023-04-24T11:38:47;15.00;99.90
76120;DHT22;64852;48.092;-1.640;2023-04-24T11:41:13;14.70;99.90
76120;DHT22;64852;48.092;-1.640;2023-04-24T11:43:39;14.80;99.90
76120;DHT22;64852;48.092;-1.640;2023-04-24T11:46:04;14.80;99.90
76120;DHT22;64852;48.092;-1.640;2023-04-24T11:48:33;14.80;99.90
76120;DHT22;64852;48.092;-1.640;2023-04-24T11:51:01;15.10;99.90
76120;DHT22;64852;48.092;-1.640;2023-04-24T11:53:27;15.40;99.90
76120;DHT22;64852;48.092;-1.640;2023-04-24T11:55:52;15.70;99.90
76120;DHT22;64852;48.092;-1.640;2023-04-24T11:58:20;15.60;93.70
76120;DHT22;64852;48.092;-1.640;2023-04-24T12:00:45;15.60;90.00
76120;DHT22;64852;48.092;-1.640;2023-04-24T12:03:11;15.40;87.20
76120;DHT22;64852;48.092;-1.640;2023-04-24T12:05:37;15.20;91.40
76120;DHT22;64852;48.092;-1.640;2023-04-24T12:08:03;15.20;90.70
76120;DHT22;64852;48.092;-1.640;2023-04-24T12:10:29;14.90;91.10
76120;DHT22;64852;48.092;-1.640;2023-04-24T12:12:55;14.90;89.70
76120;DHT22;64852;48.092;-1.640;2023-04-24T12:15:21;14.60;91.20
76120;DHT22;64852;48.092;-1.640;2023-04-24T12:17:47;14.70;93.00
76120;DHT22;64852;48.092;-1.640;2023-04-24T12:20:13;14.80;93.90
76120;DHT22;64852;48.092;-1.640;2023-04-24T12:23:12;15.00;96.80
76120;DHT22;64852;48.092;-1.640;2023-04-24T12:25:31;15.60;99.90
76120;DHT22;64852;48.092;-1.640;2023-04-24T12:30:28;16.60;72.80
76120;DHT22;64852;48.092;-1.640;2023-04-24T12:32:56;16.20;74.60
76120;DHT22;64852;48.092;-1.640;2023-04-24T12:35:22;16.00;70.00
76120;DHT22;64852;48.092;-1.640;2023-04-24T12:37:48;15.80;78.30
76120;DHT22;64852;48.092;-1.640;2023-04-24T12:40:14;15.70;75.20
76120;DHT22;64852;48.092;-1.640;2023-04-24T12:42:45;15.80;77.50
76120;DHT22;64852;48.092;-1.640;2023-04-24T12:45:10;15.90;78.10
76120;DHT22;64852;48.092;-1.640;2023-04-24T12:47:37;15.00;76.30
76120;DHT22;64852;48.092;-1.640;2023-04-24T12:50:03;15.80;80.10
76120;DHT22;64852;48.092;-1.640;2023-04-24T12:52:30;16.00;83.00
76120;DHT22;64852;48.092;-1.640;2023-04-24T12:54:56;16.20;80.50
76120;DHT22;64852;48.092;-1.640;2023-04-24T12:57:22;16.50;80.50
76120;DHT22;64852;48.092;-1.640;2023-04-24T12:59:48;16.60;76.00
76120;DHT22;64852;48.092;-1.640;2023-04-24T13:02:14;16.70;80.20
76120;DHT22;64852;48.092;-1.640;2023-04-24T13:04:48;17.10;90.30
76120;DHT22;64852;48.092;-1.640;2023-04-24T13:07:14;17.60;93.20
76120;DHT22;64852;48.092;-1.640;2023-04-24T13:09:40;18.30;73.00
76120;DHT22;64852;48.092;-1.640;2023-04-24T13:12:06;18.80;96.90
76120;DHT22;64852;48.092;-1.640;2023-04-24T13:14:32;17.40;61.40
76120;DHT22;64852;48.092;-1.640;2023-04-24T13:16:57;19.70;71.80
76120;DHT22;64852;48.092;-1.640;2023-04-24T13:19:26;19.80;58.90
76120;DHT22;64852;48.092;-1.640;2023-04-24T13:21:52;19.90;57.60
76120;DHT22;64852;48.092;-1.640;2023-04-24T13:24:18;19.60;57.40
76120;DHT22;64852;48.092;-1.640;2023-04-24T13:26:43;19.80;66.50
76120;DHT22;64852;48.092;-1.640;2023-04-24T13:29:09;20.30;58.00
76120;DHT22;64852;48.092;-1.640;2023-04-24T13:31:35;20.40;57.00
76120;DHT22;64852;48.092;-1.640;2023-04-24T13:34:01;20.30;58.10
76120;DHT22;64852;48.092;-1.640;2023-04-24T13:36:27;20.30;58.00
76120;DHT22;64852;48.092;-1.640;2023-04-24T13:38:52;20.30;59.90
76120;DHT22;64852;48.092;-1.640;2023-04-24T13:41:18;20.10;55.90
76120;DHT22;64852;48.092;-1.640;2023-04-24T13:43:43;19.10;51.90
76120;DHT22;64852;48.092;-1.640;2023-04-24T13:46:09;18.30;54.60
76120;DHT22;64852;48.092;-1.640;2023-04-24T13:48:34;18.00;56.00
76120;DHT22;64852;48.092;-1.640;2023-04-24T13:51:00;18.00;60.80
76120;DHT22;64852;48.092;-1.640;2023-04-24T13:53:25;16.40;57.70
76120;DHT22;64852;48.092;-1.640;2023-04-24T13:55:51;18.10;58.30
76120;DHT22;64852;48.092;-1.640;2023-04-24T13:58:17;18.00;59.70
76120;DHT22;64852;48.092;-1.640;2023-04-24T14:00:42;18.00;61.90
76120;DHT22;64852;48.092;-1.640;2023-04-24T14:03:08;18.10;62.20
76120;DHT22;64852;48.092;-1.640;2023-04-24T14:05:33;18.20;62.20
76120;DHT22;64852;48.092;-1.640;2023-04-24T14:07:59;18.10;58.90
76120;DHT22;64852;48.092;-1.640;2023-04-24T14:10:25;18.00;61.40
76120;DHT22;64852;48.092;-1.640;2023-04-24T14:12:52;17.80;59.70
76120;DHT22;64852;48.092;-1.640;2023-04-24T14:15:18;18.00;60.40
76120;DHT22;64852;48.092;-1.640;2023-04-24T14:17:43;17.50;60.90
76120;DHT22;64852;48.092;-1.640;2023-04-24T14:20:09;17.30;61.60
76120;DHT22;64852;48.092;-1.640;2023-04-24T14:22:35;17.20;61.50
76120;DHT22;64852;48.092;-1.640;2023-04-24T14:25:00;16.90;67.20
76120;DHT22;64852;48.092;-1.640;2023-04-24T14:27:26;16.80;77.60
76120;DHT22;64852;48.092;-1.640;2023-04-24T14:29:51;16.70;79.90
76120;DHT22;64852;48.092;-1.640;2023-04-24T14:32:17;16.50;95.50
76120;DHT22;64852;48.092;-1.640;2023-04-24T14:34:43;16.20;99.90
76120;DHT22;64852;48.092;-1.640;2023-04-24T14:37:08;16.40;99.90
76120;DHT22;64852;48.092;-1.640;2023-04-24T14:39:34;16.40;99.90
76120;DHT22;64852;48.092;-1.640;2023-04-24T14:42:00;16.40;99.90
76120;DHT22;64852;48.092;-1.640;2023-04-24T14:44:26;16.40;99.90
76120;DHT22;64852;48.092;-1.640;2023-04-24T14:46:51;16.60;99.90
76120;DHT22;64852;48.092;-1.640;2023-04-24T14:49:17;17.40;99.90
76120;DHT22;64852;48.092;-1.640;2023-04-24T14:51:42;17.80;99.90
76120;DHT22;64852;48.092;-1.640;2023-04-24T14:54:08;17.80;99.90
76120;DHT22;64852;48.092;-1.640;2023-04-24T14:56:34;17.60;99.90
76120;DHT22;64852;48.092;-1.640;2023-04-24T14:59:00;17.30;99.90
76120;DHT22;64852;48.092;-1.640;2023-04-24T15:01:25;17.10;99.90
76120;DHT22;64852;48.092;-1.640;2023-04-24T15:03:51;17.10;99.90
76120;DHT22;64852;48.092;-1.640;2023-04-24T15:06:16;17.20;99.90
76120;DHT22;64852;48.092;-1.640;2023-04-24T15:08:42;17.10;99.90
76120;DHT22;64852;48.092;-1.640;2023-04-24T15:11:08;16.90;99.90
76120;DHT22;64852;48.092;-1.640;2023-04-24T15:13:34;16.20;99.90
76120;DHT22;64852;48.092;-1.640;2023-04-24T15:15:59;15.80;99.90
76120;DHT22;64852;48.092;-1.640;2023-04-24T15:18:25;15.40;99.90
76120;DHT22;64852;48.092;-1.640;2023-04-24T15:20:52;15.20;99.90
76120;DHT22;64852;48.092;-1.640;2023-04-24T15:23:18;15.10;99.90
76120;DHT22;64852;48.092;-1.640;2023-04-24T15:25:43;15.20;99.90